createdAt,value
2023-05-05T00:02:07.228Z,100488.31
2023-05-05T00:09:27.037Z,100473.69
2023-05-05T00:16:45.531Z,100476.03
2023-05-05T00:24:04.374Z,100482.53
2023-05-05T00:31:24.287Z,100473.59
2023-05-05T00:38:42.720Z,100470.09
2023-05-05T00:46:03.317Z,100464.03
2023-05-05T00:53:23.558Z,100468.88
2023-05-05T01:00:42.146Z,100459.38
2023-05-05T01:08:15.156Z,100464.22
2023-05-05T01:15:37.745Z,100453.88
2023-05-05T01:23:01.290Z,100449.72
2023-05-05T01:30:22.437Z,100443.06
2023-05-05T01:37:47.728Z,100448.75
2023-05-05T01:45:09.129Z,100433.72
2023-05-05T01:52:28.117Z,100439.66
2023-05-05T01:59:48.148Z,100433.03
2023-05-05T02:07:06.636Z,100444.38
2023-05-05T02:14:28.284Z,100438.59
2023-05-05T02:21:48.190Z,100436.63
2023-05-05T02:29:08.786Z,100437.75
2023-05-05T02:36:30.105Z,100426.41
2023-05-05T02:43:56.204Z,100426.56
2023-05-05T02:51:14.933Z,100430.28
2023-05-05T02:58:39.525Z,100429.72
2023-05-05T03:06:05.685Z,100438.28
2023-05-05T03:13:26.524Z,100451.22
2023-05-05T03:20:45.206Z,100453.84
2023-05-05T03:28:08.010Z,100446.69
2023-05-05T03:35:27.267Z,100457.03
2023-05-05T03:42:46.032Z,100457.72
2023-05-05T03:50:07.830Z,100444.34
2023-05-05T03:57:27.204Z,100447.91
2023-05-05T04:04:45.713Z,100452.38
2023-05-05T04:12:07.748Z,100454.16
2023-05-05T04:19:26.158Z,100455.81
2023-05-05T04:26:45.277Z,100452.78
2023-05-05T04:34:05.683Z,100454.72
2023-05-05T04:41:24.614Z,100458.44
2023-05-05T04:48:43.334Z,100471.97
2023-05-05T04:56:03.673Z,100478.03
2023-05-05T05:03:22.138Z,100474.03
2023-05-05T05:10:41.094Z,100473.56
2023-05-05T05:18:01.560Z,100469.09
2023-05-05T05:25:20.469Z,100470.03
2023-05-05T05:32:40.236Z,100490.19
2023-05-05T05:40:00.886Z,100497.03
2023-05-05T05:47:22.555Z,100498.75
2023-05-05T05:54:42.136Z,100505.69
2023-05-05T06:02:03.784Z,100499.81
2023-05-05T06:09:25.224Z,100511.16
2023-05-05T06:16:45.827Z,100509.31
2023-05-05T06:24:09.950Z,100509.63
2023-05-05T06:31:28.498Z,100507.59
2023-05-05T06:38:47.457Z,100506.34
2023-05-05T06:46:07.752Z,100510.13
2023-05-05T06:53:26.320Z,100507.22
2023-05-05T07:00:44.601Z,100516.59
2023-05-05T07:08:04.373Z,100517.06
2023-05-05T07:15:28.065Z,100512.56
2023-05-05T07:22:47.611Z,100506.66
2023-05-05T07:30:13.214Z,100509.19
2023-05-05T07:37:32.897Z,100498.84
2023-05-05T07:44:51.040Z,100503.88
2023-05-05T07:52:10.755Z,100497.19
2023-05-05T07:59:29.924Z,100499.53
2023-05-05T08:06:48.360Z,100497.69
2023-05-05T08:14:08.807Z,100492.28
2023-05-05T08:21:27.802Z,100511.44
2023-05-05T08:28:46.841Z,100499.91
2023-05-05T08:36:07.148Z,100499.41
2023-05-05T08:43:25.280Z,100496.66
2023-05-05T08:50:45.261Z,100500.16
2023-05-05T08:58:05.191Z,100497.19
2023-05-05T09:05:23.631Z,100495.03
2023-05-05T09:12:42.389Z,100485.47
2023-05-05T09:20:07.373Z,100483.88
2023-05-05T09:27:25.943Z,100473.63
2023-05-05T09:34:44.557Z,100482.13
2023-05-05T09:42:05.032Z,100476.66
2023-05-05T09:49:25.700Z,100464.75
2023-05-05T09:56:44.289Z,100466.19
2023-05-05T10:04:03.781Z,100475.06
2023-05-05T10:11:22.357Z,100462.25
2023-05-05T10:18:44.069Z,100460.09
2023-05-05T10:26:07.679Z,100469.50
2023-05-05T10:33:32.740Z,100451.03
2023-05-05T10:40:51.759Z,100444.56
2023-05-05T10:48:15.787Z,100445.56
2023-05-05T10:55:38.015Z,100437.13
2023-05-05T11:03:11.241Z,100436.69
2023-05-05T11:10:31.566Z,100431.22
2023-05-05T11:17:49.894Z,100419.84
2023-05-05T11:25:41.649Z,100419.78
2023-05-05T11:33:37.039Z,100408.88
2023-05-05T11:41:00.369Z,100404.66
2023-05-05T11:48:28.819Z,100403.00
2023-05-05T11:55:47.138Z,100399.09
2023-05-05T12:03:07.092Z,100382.88
2023-05-05T12:10:25.829Z,100390.47
2023-05-05T12:17:46.322Z,100380.22
2023-05-05T12:25:07.873Z,100377.91
2023-05-05T12:32:28.186Z,100367.00
2023-05-05T12:39:46.897Z,100366.91
2023-05-05T12:47:07.514Z,100357.00
2023-05-05T12:54:29.654Z,100364.81
2023-05-05T13:01:53.106Z,100363.41
2023-05-05T13:09:25.835Z,100358.78
2023-05-05T13:16:44.086Z,100339.44
2023-05-05T13:24:20.773Z,100345.97
2023-05-05T13:31:47.029Z,100333.34
2023-05-05T13:39:06.585Z,100331.47
2023-05-05T13:46:26.525Z,100318.59
2023-05-05T13:53:47.892Z,100310.19
2023-05-05T14:01:06.816Z,100306.16
2023-05-05T14:08:25.572Z,100292.41
2023-05-05T14:15:45.624Z,100294.59
2023-05-05T14:23:04.772Z,100289.94
2023-05-05T14:30:23.535Z,100287.56
2023-05-05T14:37:43.619Z,100279.03
2023-05-05T14:45:03.656Z,100282.69
2023-05-05T14:52:21.929Z,100279.75
2023-05-05T14:59:42.267Z,100279.09
2023-05-05T15:07:00.981Z,100284.66
2023-05-05T15:14:19.401Z,100272.53
2023-05-05T15:21:39.054Z,100264.81
2023-05-05T15:28:57.675Z,100260.81
2023-05-05T15:36:17.355Z,100258.13
2023-05-05T15:43:39.014Z,100250.38
2023-05-05T15:50:57.562Z,100250.38
2023-05-05T15:58:16.010Z,100262.56
2023-05-05T16:05:36.361Z,100247.84
2023-05-05T16:12:55.405Z,100249.63
2023-05-05T16:20:14.537Z,100241.47
2023-05-05T16:27:34.320Z,100230.75
2023-05-05T16:34:52.904Z,100221.34
2023-05-05T16:42:11.487Z,100221.56
2023-05-05T16:49:31.503Z,100225.34
2023-05-05T16:56:51.198Z,100215.25
2023-05-05T17:04:09.972Z,100231.56
2023-05-05T17:11:29.937Z,100227.41
2023-05-05T17:18:48.415Z,100238.13
2023-05-05T17:26:06.770Z,100241.66
2023-05-05T17:33:26.494Z,100245.81
2023-05-05T17:40:45.325Z,100255.88
2023-05-05T17:48:04.082Z,100242.94
2023-05-05T17:55:24.569Z,100252.91
2023-05-05T18:02:43.578Z,100252.09
2023-05-05T18:10:01.906Z,100266.94
2023-05-05T18:17:22.079Z,100274.97
2023-05-05T18:24:40.424Z,100278.88
2023-05-05T18:31:59.658Z,100286.22
2023-05-05T18:39:19.338Z,100295.91
2023-05-05T18:46:38.220Z,100298.25
2023-05-05T18:53:57.156Z,100299.97
2023-05-05T19:01:17.605Z,100315.66
2023-05-05T19:08:36.969Z,100304.91
2023-05-05T19:15:57.657Z,100307.88
2023-05-05T19:23:23.434Z,100314.88
2023-05-05T19:30:49.029Z,100308.09
2023-05-05T19:38:09.977Z,100308.63
2023-05-05T19:45:30.405Z,100284.31
2023-05-05T19:52:48.903Z,100306.94
2023-05-05T20:00:10.730Z,100305.88
2023-05-05T20:07:31.469Z,100301.38
2023-05-05T20:14:50.454Z,100300.63
2023-05-05T20:22:09.622Z,100303.56
2023-05-05T20:29:30.539Z,100280.25
2023-05-05T20:36:49.520Z,100272.69
2023-05-05T20:44:09.908Z,100275.34
2023-05-05T20:51:32.221Z,100264.56
2023-05-05T20:58:51.264Z,100261.66
2023-05-05T21:06:10.452Z,100257.59
2023-05-05T21:13:31.360Z,100262.94
2023-05-05T21:20:49.799Z,100265.47
2023-05-05T21:28:08.792Z,100258.72
2023-05-05T21:35:28.637Z,100247.03
2023-05-05T21:42:47.338Z,100254.50
2023-05-05T21:50:06.706Z,100249.88
2023-05-05T21:57:27.359Z,100254.63
2023-05-05T22:04:48.803Z,100245.22
2023-05-05T22:12:08.828Z,100256.97
2023-05-05T22:19:29.521Z,100267.66
2023-05-05T22:26:48.614Z,100247.19
2023-05-05T22:34:07.016Z,100243.38
2023-05-05T22:41:26.984Z,100237.47
2023-05-05T22:48:45.241Z,100224.25
2023-05-05T22:56:04.866Z,100228.53
2023-05-05T23:03:25.107Z,100222.25
2023-05-05T23:10:43.516Z,100231.94
2023-05-05T23:18:01.909Z,100230.91
2023-05-05T23:25:21.789Z,100225.13
2023-05-05T23:32:40.235Z,100229.56
2023-05-05T23:39:58.844Z,100201.53
2023-05-05T23:47:18.756Z,100201.22
2023-05-05T23:54:37.444Z,100184.88
